sensor_id;sensor_type;location;lat;lon;timestamp;temperature;humidity
14252;DHT22;7210;51.502;10.722;2023-04-07T00:01:19;0.50;99.90
14252;DHT22;7210;51.502;10.722;2023-04-07T00:03:46;0.50;99.90
14252;DHT22;7210;51.502;10.722;2023-04-07T00:06:14;0.40;99.90
14252;DHT22;7210;51.502;10.722;2023-04-07T00:08:41;0.40;99.90
14252;DHT22;7210;51.502;10.722;2023-04-07T00:11:09;0.40;99.90
14252;DHT22;7210;51.502;10.722;2023-04-07T00:13:37;0.30;99.90
14252;DHT22;7210;51.502;10.722;2023-04-07T00:16:05;0.20;99.90
14252;DHT22;7210;51.502;10.722;2023-04-07T00:18:32;0.10;99.90
14252;DHT22;7210;51.502;10.722;2023-04-07T00:20:59;0.00;99.90
14252;DHT22;7210;51.502;10.722;2023-04-07T00:23:26;0.00;99.90
14252;DHT22;7210;51.502;10.722;2023-04-07T00:25:53;-0.10;99.90
14252;DHT22;7210;51.502;10.722;2023-04-07T00:28:21;-0.20;99.90
14252;DHT22;7210;51.502;10.722;2023-04-07T00:30:49;-0.10;99.90
14252;DHT22;7210;51.502;10.722;2023-04-07T00:33:17;-0.10;99.90
14252;DHT22;7210;51.502;10.722;2023-04-07T00:35:44;-0.20;99.90
14252;DHT22;7210;51.502;10.722;2023-04-07T00:38:12;-0.20;99.90
14252;DHT22;7210;51.502;10.722;2023-04-07T00:40:39;-0.20;99.90
14252;DHT22;7210;51.502;10.722;2023-04-07T00:43:06;-0.20;99.90
14252;DHT22;7210;51.502;10.722;2023-04-07T00:45:35;-0.30;99.90
14252;DHT22;7210;51.502;10.722;2023-04-07T00:48:05;-0.40;99.90
14252;DHT22;7210;51.502;10.722;2023-04-07T00:50:32;-0.40;99.90
14252;DHT22;7210;51.502;10.722;2023-04-07T00:53:00;-0.50;99.90
14252;DHT22;7210;51.502;10.722;2023-04-07T00:55:27;-0.40;99.90
14252;DHT22;7210;51.502;10.722;2023-04-07T00:57:55;-0.50;99.90
14252;DHT22;7210;51.502;10.722;2023-04-07T01:00:22;-0.50;99.90
14252;DHT22;7210;51.502;10.722;2023-04-07T01:02:54;-0.60;99.90
14252;DHT22;7210;51.502;10.722;2023-04-07T01:05:32;-0.50;99.90
14252;DHT22;7210;51.502;10.722;2023-04-07T01:08:13;-0.60;99.90
14252;DHT22;7210;51.502;10.722;2023-04-07T01:10:51;-0.60;99.90
14252;DHT22;7210;51.502;10.722;2023-04-07T01:13:27;-0.70;99.90
14252;DHT22;7210;51.502;10.722;2023-04-07T01:16:11;-0.70;99.90
14252;DHT22;7210;51.502;10.722;2023-04-07T01:18:51;-0.70;99.90
14252;DHT22;7210;51.502;10.722;2023-04-07T01:21:25;-0.70;99.90
14252;DHT22;7210;51.502;10.722;2023-04-07T01:24:04;-0.60;99.90
14252;DHT22;7210;51.502;10.722;2023-04-07T01:26:50;-0.70;99.90
14252;DHT22;7210;51.502;10.722;2023-04-07T01:29:32;-0.80;99.90
14252;DHT22;7210;51.502;10.722;2023-04-07T01:32:03;-0.80;99.90
14252;DHT22;7210;51.502;10.722;2023-04-07T01:34:33;-0.90;99.90
14252;DHT22;7210;51.502;10.722;2023-04-07T01:37:03;-0.90;99.90
14252;DHT22;7210;51.502;10.722;2023-04-07T01:39:32;-1.00;99.90
14252;DHT22;7210;51.502;10.722;2023-04-07T01:42:01;-0.90;99.90
14252;DHT22;7210;51.502;10.722;2023-04-07T01:44:32;-0.90;99.90
14252;DHT22;7210;51.502;10.722;2023-04-07T01:47:01;-0.90;99.90
14252;DHT22;7210;51.502;10.722;2023-04-07T01:49:30;-1.00;99.90
14252;DHT22;7210;51.502;10.722;2023-04-07T01:51:58;-1.00;99.90
14252;DHT22;7210;51.502;10.722;2023-04-07T01:54:27;-1.10;99.90
14252;DHT22;7210;51.502;10.722;2023-04-07T01:56:55;-1.10;99.90
14252;DHT22;7210;51.502;10.722;2023-04-07T01:59:22;-1.10;99.90
14252;DHT22;7210;51.502;10.722;2023-04-07T02:01:51;-1.00;99.90
14252;DHT22;7210;51.502;10.722;2023-04-07T02:04:23;-1.00;99.90
14252;DHT22;7210;51.502;10.722;2023-04-07T02:07:00;-1.00;99.90
14252;DHT22;7210;51.502;10.722;2023-04-07T02:09:39;-1.10;99.90
14252;DHT22;7210;51.502;10.722;2023-04-07T02:14:59;-1.10;99.90
14252;DHT22;7210;51.502;10.722;2023-04-07T02:17:32;-1.10;99.90
14252;DHT22;7210;51.502;10.722;2023-04-07T02:20:03;-1.20;99.90
14252;DHT22;7210;51.502;10.722;2023-04-07T02:22:32;-1.20;99.90
14252;DHT22;7210;51.502;10.722;2023-04-07T02:25:00;-1.20;99.90
14252;DHT22;7210;51.502;10.722;2023-04-07T02:27:27;-1.20;99.90
14252;DHT22;7210;51.502;10.722;2023-04-07T02:29:55;-1.20;99.90
14252;DHT22;7210;51.502;10.722;2023-04-07T02:32:22;-1.20;99.90
14252;DHT22;7210;51.502;10.722;2023-04-07T02:34:51;-1.20;99.90
14252;DHT22;7210;51.502;10.722;2023-04-07T02:37:18;-1.30;99.90
14252;DHT22;7210;51.502;10.722;2023-04-07T02:39:45;-1.40;99.90
14252;DHT22;7210;51.502;10.722;2023-04-07T02:42:12;-1.40;99.90
14252;DHT22;7210;51.502;10.722;2023-04-07T02:44:40;-1.50;99.90
14252;DHT22;7210;51.502;10.722;2023-04-07T02:47:08;-1.50;99.90
14252;DHT22;7210;51.502;10.722;2023-04-07T02:49:35;-1.60;99.90
14252;DHT22;7210;51.502;10.722;2023-04-07T02:52:06;-1.60;99.90
14252;DHT22;7210;51.502;10.722;2023-04-07T02:54:33;-1.60;99.90
14252;DHT22;7210;51.502;10.722;2023-04-07T02:57:01;-1.60;99.90
14252;DHT22;7210;51.502;10.722;2023-04-07T03:01:56;-1.70;99.90
14252;DHT22;7210;51.502;10.722;2023-04-07T03:04:24;-1.70;99.90
14252;DHT22;7210;51.502;10.722;2023-04-07T03:06:52;-1.80;99.90
14252;DHT22;7210;51.502;10.722;2023-04-07T03:09:22;-1.80;99.90
14252;DHT22;7210;51.502;10.722;2023-04-07T03:11:49;-1.80;99.90
14252;DHT22;7210;51.502;10.722;2023-04-07T03:14:17;-1.90;99.90
14252;DHT22;7210;51.502;10.722;2023-04-07T03:16:47;-1.90;99.90
14252;DHT22;7210;51.502;10.722;2023-04-07T03:19:15;-1.90;99.90
14252;DHT22;7210;51.502;10.722;2023-04-07T03:21:45;-1.90;99.90
14252;DHT22;7210;51.502;10.722;2023-04-07T03:24:12;-1.90;99.90
14252;DHT22;7210;51.502;10.722;2023-04-07T03:26:41;-1.90;99.90
14252;DHT22;7210;51.502;10.722;2023-04-07T03:29:24;-1.80;99.90
14252;DHT22;7210;51.502;10.722;2023-04-07T03:31:51;-1.80;99.90
14252;DHT22;7210;51.502;10.722;2023-04-07T03:34:22;-1.80;99.90
14252;DHT22;7210;51.502;10.722;2023-04-07T03:36:50;-1.80;99.90
14252;DHT22;7210;51.502;10.722;2023-04-07T03:39:17;-1.80;99.90
14252;DHT22;7210;51.502;10.722;2023-04-07T03:41:46;-1.80;99.90
14252;DHT22;7210;51.502;10.722;2023-04-07T03:44:13;-1.90;99.90
14252;DHT22;7210;51.502;10.722;2023-04-07T03:46:40;-1.90;99.90
14252;DHT22;7210;51.502;10.722;2023-04-07T03:49:10;-2.00;99.90
14252;DHT22;7210;51.502;10.722;2023-04-07T03:51:37;-2.00;99.90
14252;DHT22;7210;51.502;10.722;2023-04-07T03:54:11;-2.00;99.90
14252;DHT22;7210;51.502;10.722;2023-04-07T03:56:41;-2.10;99.90
14252;DHT22;7210;51.502;10.722;2023-04-07T03:59:09;-2.10;99.90
14252;DHT22;7210;51.502;10.722;2023-04-07T04:01:48;-2.10;99.90
14252;DHT22;7210;51.502;10.722;2023-04-07T04:04:15;-2.20;99.90
14252;DHT22;7210;51.502;10.722;2023-04-07T04:06:42;-2.20;99.90
14252;DHT22;7210;51.502;10.722;2023-04-07T04:09:25;-2.20;99.90
14252;DHT22;7210;51.502;10.722;2023-04-07T04:11:52;-2.20;99.90
14252;DHT22;7210;51.502;10.722;2023-04-07T04:14:20;-2.20;99.90
14252;DHT22;7210;51.502;10.722;2023-04-07T04:16:55;-2.30;99.90
14252;DHT22;7210;51.502;10.722;2023-04-07T04:19:34;-2.30;99.90
14252;DHT22;7210;51.502;10.722;2023-04-07T04:22:10;-2.30;99.90
14252;DHT22;7210;51.502;10.722;2023-04-07T04:24:46;-2.30;99.90
14252;DHT22;7210;51.502;10.722;2023-04-07T04:27:14;-2.30;99.90
14252;DHT22;7210;51.502;10.722;2023-04-07T04:29:45;-2.30;99.90
14252;DHT22;7210;51.502;10.722;2023-04-07T04:32:16;-2.20;99.90
14252;DHT22;7210;51.502;10.722;2023-04-07T04:34:43;-2.20;99.90
14252;DHT22;7210;51.502;10.722;2023-04-07T04:37:11;-2.30;99.90
14252;DHT22;7210;51.502;10.722;2023-04-07T04:39:42;-2.20;99.90
14252;DHT22;7210;51.502;10.722;2023-04-07T04:42:11;-2.30;99.90
14252;DHT22;7210;51.502;10.722;2023-04-07T04:44:38;-2.30;99.90
14252;DHT22;7210;51.502;10.722;2023-04-07T04:47:08;-2.20;99.90
14252;DHT22;7210;51.502;10.722;2023-04-07T04:49:38;-2.10;99.90
14252;DHT22;7210;51.502;10.722;2023-04-07T04:52:06;-2.10;99.90
14252;DHT22;7210;51.502;10.722;2023-04-07T04:54:39;-2.10;99.90
14252;DHT22;7210;51.502;10.722;2023-04-07T04:57:09;-2.10;99.90
14252;DHT22;7210;51.502;10.722;2023-04-07T04:59:38;-2.10;99.90
14252;DHT22;7210;51.502;10.722;2023-04-07T05:02:08;-2.10;99.90
14252;DHT22;7210;51.502;10.722;2023-04-07T05:04:36;-2.10;99.90
14252;DHT22;7210;51.502;10.722;2023-04-07T05:07:18;-2.10;99.90
14252;DHT22;7210;51.502;10.722;2023-04-07T05:09:46;-2.00;99.90
14252;DHT22;7210;51.502;10.722;2023-04-07T05:12:14;-2.00;99.90
14252;DHT22;7210;51.502;10.722;2023-04-07T05:14:47;-2.00;99.90
14252;DHT22;7210;51.502;10.722;2023-04-07T05:17:17;-1.90;99.90
14252;DHT22;7210;51.502;10.722;2023-04-07T05:19:45;-1.70;99.90
14252;DHT22;7210;51.502;10.722;2023-04-07T05:22:22;-1.60;99.90
14252;DHT22;7210;51.502;10.722;2023-04-07T05:24:50;-1.60;99.90
14252;DHT22;7210;51.502;10.722;2023-04-07T05:27:17;-1.40;99.90
14252;DHT22;7210;51.502;10.722;2023-04-07T05:29:49;-1.30;99.90
14252;DHT22;7210;51.502;10.722;2023-04-07T05:32:27;-1.20;99.90
14252;DHT22;7210;51.502;10.722;2023-04-07T05:34:56;-1.00;99.90
14252;DHT22;7210;51.502;10.722;2023-04-07T05:37:28;-0.80;99.90
14252;DHT22;7210;51.502;10.722;2023-04-07T05:39:59;-0.70;99.90
14252;DHT22;7210;51.502;10.722;2023-04-07T05:42:27;-0.50;99.90
14252;DHT22;7210;51.502;10.722;2023-04-07T05:44:56;-0.40;99.90
14252;DHT22;7210;51.502;10.722;2023-04-07T05:47:27;-0.30;99.90
14252;DHT22;7210;51.502;10.722;2023-04-07T05:49:58;-0.20;99.90
14252;DHT22;7210;51.502;10.722;2023-04-07T05:52:25;-0.10;99.90
14252;DHT22;7210;51.502;10.722;2023-04-07T05:55:03;-0.10;99.90
14252;DHT22;7210;51.502;10.722;2023-04-07T05:57:31;-0.10;99.90
14252;DHT22;7210;51.502;10.722;2023-04-07T06:00:01;-0.10;99.90
14252;DHT22;7210;51.502;10.722;2023-04-07T06:02:41;0.00;99.90
14252;DHT22;7210;51.502;10.722;2023-04-07T06:05:15;0.00;99.90
14252;DHT22;7210;51.502;10.722;2023-04-07T06:07:44;0.00;99.90
14252;DHT22;7210;51.502;10.722;2023-04-07T06:10:13;0.00;99.90
14252;DHT22;7210;51.502;10.722;2023-04-07T06:12:41;0.00;99.90
14252;DHT22;7210;51.502;10.722;2023-04-07T06:15:10;0.10;99.90
14252;DHT22;7210;51.502;10.722;2023-04-07T06:17:37;0.20;99.90
14252;DHT22;7210;51.502;10.722;2023-04-07T06:20:07;0.30;99.90
14252;DHT22;7210;51.502;10.722;2023-04-07T06:22:34;0.40;99.90
14252;DHT22;7210;51.502;10.722;2023-04-07T06:25:02;0.50;99.90
14252;DHT22;7210;51.502;10.722;2023-04-07T06:27:30;0.60;99.90
14252;DHT22;7210;51.502;10.722;2023-04-07T06:29:59;0.70;99.90
14252;DHT22;7210;51.502;10.722;2023-04-07T06:32:27;0.70;99.90
14252;DHT22;7210;51.502;10.722;2023-04-07T06:34:56;0.80;99.90
14252;DHT22;7210;51.502;10.722;2023-04-07T06:37:25;0.80;99.90
14252;DHT22;7210;51.502;10.722;2023-04-07T06:39:53;0.80;99.90
14252;DHT22;7210;51.502;10.722;2023-04-07T06:42:20;0.80;99.90
14252;DHT22;7210;51.502;10.722;2023-04-07T06:44:56;0.80;99.90
14252;DHT22;7210;51.502;10.722;2023-04-07T06:47:23;0.80;99.90
14252;DHT22;7210;51.502;10.722;2023-04-07T06:49:51;0.80;99.90
14252;DHT22;7210;51.502;10.722;2023-04-07T06:52:18;0.90;99.90
14252;DHT22;7210;51.502;10.722;2023-04-07T06:54:46;0.90;99.90
14252;DHT22;7210;51.502;10.722;2023-04-07T06:57:13;1.00;99.90
14252;DHT22;7210;51.502;10.722;2023-04-07T06:59:41;1.00;99.90
14252;DHT22;7210;51.502;10.722;2023-04-07T07:02:08;1.20;99.90
14252;DHT22;7210;51.502;10.722;2023-04-07T07:04:35;1.30;99.90
14252;DHT22;7210;51.502;10.722;2023-04-07T07:07:02;1.50;99.90
14252;DHT22;7210;51.502;10.722;2023-04-07T07:09:29;1.60;99.90
14252;DHT22;7210;51.502;10.722;2023-04-07T07:11:58;1.80;99.90
14252;DHT22;7210;51.502;10.722;2023-04-07T07:14:26;1.90;99.90
14252;DHT22;7210;51.502;10.722;2023-04-07T07:16:58;1.90;99.90
14252;DHT22;7210;51.502;10.722;2023-04-07T07:19:25;2.10;99.90
14252;DHT22;7210;51.502;10.722;2023-04-07T07:21:52;2.20;99.90
14252;DHT22;7210;51.502;10.722;2023-04-07T07:24:20;2.40;99.90
14252;DHT22;7210;51.502;10.722;2023-04-07T07:26:47;2.50;99.90
14252;DHT22;7210;51.502;10.722;2023-04-07T07:29:15;2.60;99.90
14252;DHT22;7210;51.502;10.722;2023-04-07T07:31:46;2.90;99.90
14252;DHT22;7210;51.502;10.722;2023-04-07T07:34:13;3.10;99.90
14252;DHT22;7210;51.502;10.722;2023-04-07T07:36:40;3.20;99.90
14252;DHT22;7210;51.502;10.722;2023-04-07T07:39:08;3.30;99.90
14252;DHT22;7210;51.502;10.722;2023-04-07T07:41:35;3.40;99.90
14252;DHT22;7210;51.502;10.722;2023-04-07T07:44:02;3.50;99.90
14252;DHT22;7210;51.502;10.722;2023-04-07T07:46:31;3.60;99.90
14252;DHT22;7210;51.502;10.722;2023-04-07T07:48:58;3.70;99.90
14252;DHT22;7210;51.502;10.722;2023-04-07T07:51:25;3.80;99.90
14252;DHT22;7210;51.502;10.722;2023-04-07T07:53:53;4.00;99.90
14252;DHT22;7210;51.502;10.722;2023-04-07T07:56:20;4.00;99.90
14252;DHT22;7210;51.502;10.722;2023-04-07T07:58:48;4.00;99.90
14252;DHT22;7210;51.502;10.722;2023-04-07T08:01:15;4.00;99.90
14252;DHT22;7210;51.502;10.722;2023-04-07T08:03:44;4.30;99.90
14252;DHT22;7210;51.502;10.722;2023-04-07T08:06:11;4.50;99.90
14252;DHT22;7210;51.502;10.722;2023-04-07T08:08:38;4.50;99.90
14252;DHT22;7210;51.502;10.722;2023-04-07T08:11:05;4.70;99.90
14252;DHT22;7210;51.502;10.722;2023-04-07T08:13:33;4.80;99.90
14252;DHT22;7210;51.502;10.722;2023-04-07T08:16:00;4.80;99.90
14252;DHT22;7210;51.502;10.722;2023-04-07T08:18:27;4.90;99.90
14252;DHT22;7210;51.502;10.722;2023-04-07T08:20:56;5.00;99.90
14252;DHT22;7210;51.502;10.722;2023-04-07T08:23:23;5.10;99.90
14252;DHT22;7210;51.502;10.722;2023-04-07T08:25:50;5.20;99.90
14252;DHT22;7210;51.502;10.722;2023-04-07T08:28:18;5.30;99.90
14252;DHT22;7210;51.502;10.722;2023-04-07T08:30:45;5.50;99.90
14252;DHT22;7210;51.502;10.722;2023-04-07T08:33:12;5.70;99.90
14252;DHT22;7210;51.502;10.722;2023-04-07T08:35:40;5.80;99.90
14252;DHT22;7210;51.502;10.722;2023-04-07T08:38:08;6.00;99.90
14252;DHT22;7210;51.502;10.722;2023-04-07T08:40:36;6.00;99.90
14252;DHT22;7210;51.502;10.722;2023-04-07T08:43:08;6.20;99.90
14252;DHT22;7210;51.502;10.722;2023-04-07T08:45:38;6.40;99.90
14252;DHT22;7210;51.502;10.722;2023-04-07T08:48:14;6.50;99.90
14252;DHT22;7210;51.502;10.722;2023-04-07T08:50:44;6.60;99.90
14252;DHT22;7210;51.502;10.722;2023-04-07T08:53:13;6.90;99.90
14252;DHT22;7210;51.502;10.722;2023-04-07T08:55:45;7.00;99.90
14252;DHT22;7210;51.502;10.722;2023-04-07T08:58:13;7.20;99.90
14252;DHT22;7210;51.502;10.722;2023-04-07T09:00:43;7.20;99.90
14252;DHT22;7210;51.502;10.722;2023-04-07T09:03:14;7.30;99.90
14252;DHT22;7210;51.502;10.722;2023-04-07T09:05:43;7.50;99.90
14252;DHT22;7210;51.502;10.722;2023-04-07T09:08:12;7.60;99.90
14252;DHT22;7210;51.502;10.722;2023-04-07T09:10:39;7.60;99.90
14252;DHT22;7210;51.502;10.722;2023-04-07T09:13:07;7.60;99.90
14252;DHT22;7210;51.502;10.722;2023-04-07T09:15:34;7.70;99.90
14252;DHT22;7210;51.502;10.722;2023-04-07T09:18:02;7.80;99.90
14252;DHT22;7210;51.502;10.722;2023-04-07T09:20:57;7.90;99.90
14252;DHT22;7210;51.502;10.722;2023-04-07T09:23:31;8.20;99.90
14252;DHT22;7210;51.502;10.722;2023-04-07T09:28:46;8.40;99.90
14252;DHT22;7210;51.502;10.722;2023-04-07T09:31:15;8.50;99.90
14252;DHT22;7210;51.502;10.722;2023-04-07T09:33:42;8.70;99.90
14252;DHT22;7210;51.502;10.722;2023-04-07T09:36:09;8.70;99.90
14252;DHT22;7210;51.502;10.722;2023-04-07T09:38:39;8.80;99.90
14252;DHT22;7210;51.502;10.722;2023-04-07T09:41:08;8.90;99.90
14252;DHT22;7210;51.502;10.722;2023-04-07T09:43:37;9.00;99.90
14252;DHT22;7210;51.502;10.722;2023-04-07T09:46:10;9.20;99.90
14252;DHT22;7210;51.502;10.722;2023-04-07T09:48:38;9.30;99.90
14252;DHT22;7210;51.502;10.722;2023-04-07T09:51:11;9.50;1.00
14252;DHT22;7210;51.502;10.722;2023-04-07T09:53:46;9.60;1.00
14252;DHT22;7210;51.502;10.722;2023-04-07T09:56:16;9.80;1.00
14252;DHT22;7210;51.502;10.722;2023-04-07T09:58:48;9.80;1.00
14252;DHT22;7210;51.502;10.722;2023-04-07T10:01:17;10.00;1.00
14252;DHT22;7210;51.502;10.722;2023-04-07T10:03:47;10.00;1.00
14252;DHT22;7210;51.502;10.722;2023-04-07T10:06:16;10.10;1.00
14252;DHT22;7210;51.502;10.722;2023-04-07T10:08:45;10.00;1.00
14252;DHT22;7210;51.502;10.722;2023-04-07T10:11:14;10.10;1.00
14252;DHT22;7210;51.502;10.722;2023-04-07T10:13:42;10.20;1.00
14252;DHT22;7210;51.502;10.722;2023-04-07T10:16:11;10.20;1.00
14252;DHT22;7210;51.502;10.722;2023-04-07T10:18:39;10.30;1.00
14252;DHT22;7210;51.502;10.722;2023-04-07T10:21:07;10.40;1.00
14252;DHT22;7210;51.502;10.722;2023-04-07T10:23:50;10.40;1.00
14252;DHT22;7210;51.502;10.722;2023-04-07T10:26:28;10.50;1.00
14252;DHT22;7210;51.502;10.722;2023-04-07T10:29:01;10.60;1.00
14252;DHT22;7210;51.502;10.722;2023-04-07T10:31:32;10.70;1.00
14252;DHT22;7210;51.502;10.722;2023-04-07T10:34:00;10.80;1.00
14252;DHT22;7210;51.502;10.722;2023-04-07T10:36:28;10.80;1.00
14252;DHT22;7210;51.502;10.722;2023-04-07T10:39:21;10.90;1.00
14252;DHT22;7210;51.502;10.722;2023-04-07T10:41:49;11.00;1.00
14252;DHT22;7210;51.502;10.722;2023-04-07T10:44:43;11.10;1.00
14252;DHT22;7210;51.502;10.722;2023-04-07T10:47:13;11.10;1.00
14252;DHT22;7210;51.502;10.722;2023-04-07T10:50:13;11.20;1.00
14252;DHT22;7210;51.502;10.722;2023-04-07T10:52:43;11.30;1.00
14252;DHT22;7210;51.502;10.722;2023-04-07T10:55:32;11.40;1.00
14252;DHT22;7210;51.502;10.722;2023-04-07T10:58:20;11.50;1.00
14252;DHT22;7210;51.502;10.722;2023-04-07T11:01:16;11.70;1.00
14252;DHT22;7210;51.502;10.722;2023-04-07T11:03:57;11.90;1.00
14252;DHT22;7210;51.502;10.722;2023-04-07T11:06:25;11.90;1.00
14252;DHT22;7210;51.502;10.722;2023-04-07T11:08:53;12.00;1.00
14252;DHT22;7210;51.502;10.722;2023-04-07T11:11:41;12.00;1.00
14252;DHT22;7210;51.502;10.722;2023-04-07T11:14:08;12.10;1.00
14252;DHT22;7210;51.502;10.722;2023-04-07T11:16:37;12.20;1.00
14252;DHT22;7210;51.502;10.722;2023-04-07T11:19:06;12.30;1.00
14252;DHT22;7210;51.502;10.722;2023-04-07T11:21:34;12.30;1.00
14252;DHT22;7210;51.502;10.722;2023-04-07T11:24:01;12.40;1.00
14252;DHT22;7210;51.502;10.722;2023-04-07T11:26:29;12.50;1.00
14252;DHT22;7210;51.502;10.722;2023-04-07T11:29:04;12.60;1.00
14252;DHT22;7210;51.502;10.722;2023-04-07T11:31:31;12.70;1.00
14252;DHT22;7210;51.502;10.722;2023-04-07T11:33:59;12.80;1.00
14252;DHT22;7210;51.502;10.722;2023-04-07T11:36:29;12.80;1.00
14252;DHT22;7210;51.502;10.722;2023-04-07T11:38:59;12.90;1.00
14252;DHT22;7210;51.502;10.722;2023-04-07T11:41:28;13.00;1.00
14252;DHT22;7210;51.502;10.722;2023-04-07T11:44:06;13.20;1.00
14252;DHT22;7210;51.502;10.722;2023-04-07T11:46:34;13.20;1.00
14252;DHT22;7210;51.502;10.722;2023-04-07T11:49:10;13.20;1.00
14252;DHT22;7210;51.502;10.722;2023-04-07T11:51:39;13.30;1.00
14252;DHT22;7210;51.502;10.722;2023-04-07T11:54:08;13.30;1.00
14252;DHT22;7210;51.502;10.722;2023-04-07T11:56:43;13.30;1.00
14252;DHT22;7210;51.502;10.722;2023-04-07T11:59:23;13.50;1.00
14252;DHT22;7210;51.502;10.722;2023-04-07T12:01:52;13.50;1.00
14252;DHT22;7210;51.502;10.722;2023-04-07T12:04:19;13.60;1.00
14252;DHT22;7210;51.502;10.722;2023-04-07T12:06:47;13.70;1.00
14252;DHT22;7210;51.502;10.722;2023-04-07T12:09:26;13.70;1.00
14252;DHT22;7210;51.502;10.722;2023-04-07T12:11:55;13.80;1.00
14252;DHT22;7210;51.502;10.722;2023-04-07T12:14:24;13.90;1.00
14252;DHT22;7210;51.502;10.722;2023-04-07T12:16:53;14.10;1.00
14252;DHT22;7210;51.502;10.722;2023-04-07T12:19:22;14.20;1.00
14252;DHT22;7210;51.502;10.722;2023-04-07T12:21:49;14.00;1.00
14252;DHT22;7210;51.502;10.722;2023-04-07T12:24:17;14.20;1.00
14252;DHT22;7210;51.502;10.722;2023-04-07T12:26:44;14.20;1.00
14252;DHT22;7210;51.502;10.722;2023-04-07T12:29:11;14.40;1.00
14252;DHT22;7210;51.502;10.722;2023-04-07T12:31:39;14.30;1.00
14252;DHT22;7210;51.502;10.722;2023-04-07T12:34:07;14.40;1.00
14252;DHT22;7210;51.502;10.722;2023-04-07T12:36:34;14.40;1.00
14252;DHT22;7210;51.502;10.722;2023-04-07T12:39:01;14.50;1.00
14252;DHT22;7210;51.502;10.722;2023-04-07T12:41:29;14.20;1.00
14252;DHT22;7210;51.502;10.722;2023-04-07T12:43:57;14.30;1.00
14252;DHT22;7210;51.502;10.722;2023-04-07T12:46:24;14.60;1.00
14252;DHT22;7210;51.502;10.722;2023-04-07T12:48:52;14.60;1.00
14252;DHT22;7210;51.502;10.722;2023-04-07T12:51:20;14.70;1.00
14252;DHT22;7210;51.502;10.722;2023-04-07T12:53:47;14.80;1.00
14252;DHT22;7210;51.502;10.722;2023-04-07T12:56:14;14.90;1.00
14252;DHT22;7210;51.502;10.722;2023-04-07T12:58:41;14.70;1.00
14252;DHT22;7210;51.502;10.722;2023-04-07T13:01:10;14.80;1.00
14252;DHT22;7210;51.502;10.722;2023-04-07T13:03:37;14.70;1.00
14252;DHT22;7210;51.502;10.722;2023-04-07T13:06:06;14.70;1.00
14252;DHT22;7210;51.502;10.722;2023-04-07T13:08:33;14.70;1.00
14252;DHT22;7210;51.502;10.722;2023-04-07T13:11:04;14.90;1.00
14252;DHT22;7210;51.502;10.722;2023-04-07T13:13:32;15.20;1.00
14252;DHT22;7210;51.502;10.722;2023-04-07T13:15:59;15.00;1.00
14252;DHT22;7210;51.502;10.722;2023-04-07T13:18:27;15.10;1.00
14252;DHT22;7210;51.502;10.722;2023-04-07T13:20:54;15.20;1.00
14252;DHT22;7210;51.502;10.722;2023-04-07T13:23:23;15.10;1.00
14252;DHT22;7210;51.502;10.722;2023-04-07T13:25:50;15.10;1.00
14252;DHT22;7210;51.502;10.722;2023-04-07T13:28:17;15.20;1.00
14252;DHT22;7210;51.502;10.722;2023-04-07T13:30:45;15.30;1.00
14252;DHT22;7210;51.502;10.722;2023-04-07T13:33:13;15.30;1.00
14252;DHT22;7210;51.502;10.722;2023-04-07T13:35:40;15.10;1.00
14252;DHT22;7210;51.502;10.722;2023-04-07T13:38:07;15.30;1.00
14252;DHT22;7210;51.502;10.722;2023-04-07T13:40:36;15.30;1.00
14252;DHT22;7210;51.502;10.722;2023-04-07T13:43:03;15.20;1.00
14252;DHT22;7210;51.502;10.722;2023-04-07T13:45:31;15.40;1.00
14252;DHT22;7210;51.502;10.722;2023-04-07T13:47:58;15.40;1.00
14252;DHT22;7210;51.502;10.722;2023-04-07T13:50:25;15.40;1.00
14252;DHT22;7210;51.502;10.722;2023-04-07T13:52:53;15.20;1.00
14252;DHT22;7210;51.502;10.722;2023-04-07T13:55:20;15.10;1.00
14252;DHT22;7210;51.502;10.722;2023-04-07T13:57:49;15.10;1.00
14252;DHT22;7210;51.502;10.722;2023-04-07T14:00:16;15.00;1.00
14252;DHT22;7210;51.502;10.722;2023-04-07T14:02:44;14.90;1.00
14252;DHT22;7210;51.502;10.722;2023-04-07T14:05:12;14.80;1.00
14252;DHT22;7210;51.502;10.722;2023-04-07T14:07:40;14.70;1.00
14252;DHT22;7210;51.502;10.722;2023-04-07T14:10:07;14.90;1.00
14252;DHT22;7210;51.502;10.722;2023-04-07T14:12:34;14.80;1.00
14252;DHT22;7210;51.502;10.722;2023-04-07T14:15:04;14.80;1.00
14252;DHT22;7210;51.502;10.722;2023-04-07T14:17:32;14.90;1.00
14252;DHT22;7210;51.502;10.722;2023-04-07T14:19:59;14.90;1.00
14252;DHT22;7210;51.502;10.722;2023-04-07T14:22:27;15.00;1.00
14252;DHT22;7210;51.502;10.722;2023-04-07T14:24:55;14.90;1.00
14252;DHT22;7210;51.502;10.722;2023-04-07T14:27:22;14.70;1.00
14252;DHT22;7210;51.502;10.722;2023-04-07T14:29:49;14.70;1.00
14252;DHT22;7210;51.502;10.722;2023-04-07T14:32:17;14.60;1.00
14252;DHT22;7210;51.502;10.722;2023-04-07T14:34:45;14.60;1.00
14252;DHT22;7210;51.502;10.722;2023-04-07T14:37:12;14.50;1.00
14252;DHT22;7210;51.502;10.722;2023-04-07T14:39:40;14.60;1.00
14252;DHT22;7210;51.502;10.722;2023-04-07T14:42:08;14.60;1.00
14252;DHT22;7210;51.502;10.722;2023-04-07T14:44:35;14.60;1.00
14252;DHT22;7210;51.502;10.722;2023-04-07T14:47:02;14.60;1.00
14252;DHT22;7210;51.502;10.722;2023-04-07T14:49:31;14.40;1.00
14252;DHT22;7210;51.502;10.722;2023-04-07T14:51:59;14.30;1.00
14252;DHT22;7210;51.502;10.722;2023-04-07T14:54:26;14.30;1.00
14252;DHT22;7210;51.502;10.722;2023-04-07T14:56:54;14.40;1.00
14252;DHT22;7210;51.502;10.722;2023-04-07T14:59:22;14.40;1.00
14252;DHT22;7210;51.502;10.722;2023-04-07T15:01:50;14.60;1.00
14252;DHT22;7210;51.502;10.722;2023-04-07T15:04:18;14.60;1.00
14252;DHT22;7210;51.502;10.722;2023-04-07T15:06:46;14.60;1.00
14252;DHT22;7210;51.502;10.722;2023-04-07T15:09:13;14.70;1.00
14252;DHT22;7210;51.502;10.722;2023-04-07T15:11:41;14.70;1.00
14252;DHT22;7210;51.502;10.722;2023-04-07T15:14:08;14.70;1.00
14252;DHT22;7210;51.502;10.722;2023-04-07T15:16:35;14.70;1.00
14252;DHT22;7210;51.502;10.722;2023-04-07T15:19:02;14.90;1.00
14252;DHT22;7210;51.502;10.722;2023-04-07T15:21:29;14.90;1.00
14252;DHT22;7210;51.502;10.722;2023-04-07T15:23:58;14.80;1.00
14252;DHT22;7210;51.502;10.722;2023-04-07T15:26:25;14.50;1.00
14252;DHT22;7210;51.502;10.722;2023-04-07T15:28:52;14.60;1.00
14252;DHT22;7210;51.502;10.722;2023-04-07T15:31:19;14.60;1.00
14252;DHT22;7210;51.502;10.722;2023-04-07T15:33:47;14.40;1.00
14252;DHT22;7210;51.502;10.722;2023-04-07T15:36:16;14.40;1.00
14252;DHT22;7210;51.502;10.722;2023-04-07T15:38:43;14.20;1.00
14252;DHT22;7210;51.502;10.722;2023-04-07T15:41:15;14.00;1.00
14252;DHT22;7210;51.502;10.722;2023-04-07T15:43:42;13.80;1.00
14252;DHT22;7210;51.502;10.722;2023-04-07T15:46:09;13.60;1.00
14252;DHT22;7210;51.502;10.722;2023-04-07T15:48:40;13.50;1.00
14252;DHT22;7210;51.502;10.722;2023-04-07T15:51:07;13.30;1.00
14252;DHT22;7210;51.502;10.722;2023-04-07T15:53:40;13.20;1.00
14252;DHT22;7210;51.502;10.722;2023-04-07T15:56:07;13.10;1.00
14252;DHT22;7210;51.502;10.722;2023-04-07T15:58:36;13.00;1.00
14252;DHT22;7210;51.502;10.722;2023-04-07T16:01:03;13.10;1.00
14252;DHT22;7210;51.502;10.722;2023-04-07T16:03:31;13.10;1.00